Time;durP1;ratioP1;P1;durP2;ratioP2;P2;SDS_P1;SDS_P2;PMS_P1;PMS_P2;Temp;Humidity;BMP_temperature;BMP_pressure;BME280_temperature;BME280_humidity;BME280_pressure;Samples;Min_cycle;Max_cycle;Signal;HPM_P1;HPM_P2
2022/07/31 00:02:02;;;;;;;2.20;2.10;;;;;;;19.08;61.91;101652.31;4996511;28;20466;-90
2022/07/31 00:04:27;;;;;;;2.58;2.28;;;;;;;19.06;62.20;101653.28;4996901;28;20034;-90
2022/07/31 00:06:53;;;;;;;2.50;2.30;;;;;;;19.04;62.09;101655.13;4996810;28;20704;-90
2022/07/31 00:09:18;;;;;;;2.30;2.10;;;;;;;19.02;62.19;101652.56;4996672;28;20022;-90
2022/07/31 00:11:44;;;;;;;2.40;2.20;;;;;;;19.01;62.58;101653.47;4996881;28;20030;-90
2022/07/31 00:14:11;;;;;;;2.30;2.10;;;;;;;19.01;62.46;101645.56;4996298;28;20093;-90
2022/07/31 00:16:36;;;;;;;2.10;2.00;;;;;;;19.01;63.12;101650.00;4996423;28;20113;-90
2022/07/31 00:19:01;;;;;;;2.00;1.90;;;;;;;19.02;63.06;101646.44;4996567;28;20046;-90
2022/07/31 00:21:27;;;;;;;2.30;2.10;;;;;;;19.01;62.73;101650.00;4996654;28;20044;-89
2022/07/31 00:23:52;;;;;;;2.20;2.00;;;;;;;19.01;62.84;101644.72;4996451;28;20085;-89
2022/07/31 00:26:17;;;;;;;2.10;2.00;;;;;;;19.01;62.98;101644.72;4996475;28;20034;-90
2022/07/31 00:28:43;;;;;;;2.10;2.00;;;;;;;19.00;63.14;101643.00;4996680;28;20038;-89
2022/07/31 00:31:08;;;;;;;2.07;1.90;;;;;;;18.96;63.07;101635.22;4995932;28;20094;-90
2022/07/31 00:33:33;;;;;;;2.20;2.00;;;;;;;18.96;63.25;101642.28;4996197;28;20407;-90
2022/07/31 00:35:59;;;;;;;1.80;1.70;;;;;;;18.96;63.38;101642.28;4995948;28;20121;-90
2022/07/31 00:38:24;;;;;;;2.17;2.07;;;;;;;18.97;63.12;101644.84;4996225;28;20034;-89
2022/07/31 00:40:50;;;;;;;2.13;1.93;;;;;;;18.98;63.16;101643.94;4996107;28;20030;-89
2022/07/31 00:43:17;;;;;;;2.10;2.00;;;;;;;19.00;63.16;101643.84;4995843;28;20065;-89
2022/07/31 00:45:42;;;;;;;2.00;1.90;;;;;;;19.00;63.12;101646.50;4996296;28;20113;-90
2022/07/31 00:48:10;;;;;;;2.30;2.10;;;;;;;19.00;63.01;101635.13;4995718;28;20030;-89
2022/07/31 00:50:36;;;;;;;2.25;2.05;;;;;;;18.99;63.03;101631.63;4995918;28;20023;-90
2022/07/31 00:53:02;;;;;;;2.03;1.92;;;;;;;19.00;63.05;101637.75;4995579;28;20029;-90
2022/07/31 00:55:27;;;;;;;1.93;1.83;;;;;;;19.01;63.33;101634.22;4996082;28;20022;-90
2022/07/31 00:57:53;;;;;;;1.90;1.80;;;;;;;19.00;62.90;101632.50;4995400;28;20363;-90
2022/07/31 01:00:18;;;;;;;1.80;1.70;;;;;;;18.97;63.28;101630.84;4996064;28;20025;-90
2022/07/31 01:02:43;;;;;;;2.27;2.07;;;;;;;18.92;63.24;101630.97;4996010;28;20375;-90
2022/07/31 01:05:08;;;;;;;2.23;2.03;;;;;;;18.90;63.32;101622.28;4995481;28;20117;-90
2022/07/31 01:07:34;;;;;;;2.03;1.93;;;;;;;18.87;63.26;101625.03;4995199;28;20018;-90
2022/07/31 01:10:05;;;;;;;2.00;1.90;;;;;;;18.87;63.29;101621.53;4996052;28;20087;-90
2022/07/31 01:12:43;;;;;;;2.22;2.03;;;;;;;18.85;63.63;101621.59;4995272;28;20383;-90
2022/07/31 01:15:12;;;;;;;2.22;2.03;;;;;;;18.82;63.48;101630.47;4995220;28;20042;-89
2022/07/31 01:17:39;;;;;;;2.00;1.80;;;;;;;18.79;63.53;101629.72;4995382;28;20497;-90
2022/07/31 01:20:07;;;;;;;1.90;1.80;;;;;;;18.76;63.47;101632.47;4994750;28;20037;-89
2022/07/31 01:22:51;;;;;;;2.00;1.90;;;;;;;18.72;63.53;101634.34;4995665;28;20036;-90
2022/07/31 01:25:37;;;;;;;2.10;1.90;;;;;;;18.66;63.53;101632.81;4994946;28;20185;-90
2022/07/31 01:28:08;;;;;;;2.65;2.20;;;;;;;18.64;63.66;101633.75;4995094;28;20114;-90
2022/07/31 01:30:47;;;;;;;2.30;2.10;;;;;;;18.59;63.89;101628.66;4995257;28;20031;-90
2022/07/31 01:33:17;;;;;;;1.90;1.70;;;;;;;18.53;63.87;101628.91;4994300;28;20074;-89
2022/07/31 01:35:50;;;;;;;2.20;2.00;;;;;;;18.50;64.08;101622.00;4995141;28;20050;-90
2022/07/31 01:38:21;;;;;;;2.10;2.00;;;;;;;18.48;64.12;101622.94;4995463;28;20051;-90
2022/07/31 01:40:56;;;;;;;2.13;2.00;;;;;;;18.45;64.19;101623.09;4994958;28;20022;-90
2022/07/31 01:43:30;;;;;;;2.17;2.00;;;;;;;18.42;64.24;101618.78;4994923;28;20105;-90
2022/07/31 01:45:59;;;;;;;2.00;1.90;;;;;;;18.41;64.18;101630.19;4995231;28;20114;-90
2022/07/31 01:48:26;;;;;;;2.15;1.90;;;;;;;18.40;64.18;101620.63;4995208;28;20022;-90
2022/07/31 01:50:54;;;;;;;2.05;1.90;;;;;;;18.36;64.41;101622.47;4994745;28;20018;-89
2022/07/31 01:53:21;;;;;;;1.90;1.80;;;;;;;18.35;64.49;101626.00;4994404;28;20484;-90
2022/07/31 01:55:49;;;;;;;2.15;1.77;;;;;;;18.32;64.48;101625.28;4994156;28;20057;-90
2022/07/31 01:58:17;;;;;;;1.80;1.70;;;;;;;18.28;64.65;101621.91;4995071;28;20022;-89
2022/07/31 02:00:44;;;;;;;2.03;1.80;;;;;;;18.27;64.78;101622.81;4994681;28;20030;-90
2022/07/31 02:03:11;;;;;;;1.90;1.80;;;;;;;18.22;64.71;101619.50;4994345;28;20037;-89
2022/07/31 02:05:39;;;;;;;1.85;1.75;;;;;;;18.18;64.95;101621.34;4994417;28;20023;-89
2022/07/31 02:08:06;;;;;;;2.58;1.90;;;;;;;18.14;64.76;101627.66;4994093;28;20030;-88
2022/07/31 02:10:32;;;;;;;1.80;1.70;;;;;;;18.11;64.95;101624.28;4994756;28;20022;-89
2022/07/31 02:12:59;;;;;;;2.13;1.97;;;;;;;18.10;64.84;101622.56;4994555;28;20026;-89
2022/07/31 02:15:25;;;;;;;2.78;2.00;;;;;;;18.08;65.04;101622.59;4994380;28;20761;-90
2022/07/31 02:17:51;;;;;;;2.00;1.90;;;;;;;18.08;64.57;101621.75;4994514;28;20370;-90
2022/07/31 02:20:19;;;;;;;2.17;2.05;;;;;;;18.05;65.21;101620.09;4994504;28;20022;-89
2022/07/31 02:22:44;;;;;;;2.20;2.00;;;;;;;18.04;65.05;101619.22;4994438;28;20029;-90
2022/07/31 02:25:10;;;;;;;1.90;1.80;;;;;;;18.02;65.13;101614.94;4994217;28;20022;-90
2022/07/31 02:27:38;;;;;;;1.80;1.70;;;;;;;18.01;65.22;101618.47;4994099;28;20037;-89
2022/07/31 02:30:05;;;;;;;2.20;2.00;;;;;;;17.98;65.35;101618.56;4993564;28;20459;-89
2022/07/31 02:32:32;;;;;;;2.00;1.90;;;;;;;17.94;65.76;101615.16;4993728;28;20046;-89
2022/07/31 02:35:00;;;;;;;1.90;1.80;;;;;;;17.93;65.28;101628.34;4993872;28;20376;-89
2022/07/31 02:37:26;;;;;;;2.13;1.92;;;;;;;17.88;65.61;101620.63;4993892;28;20023;-90
2022/07/31 02:39:52;;;;;;;2.13;1.92;;;;;;;17.86;65.66;101625.06;4993689;28;20085;-89
2022/07/31 02:42:19;;;;;;;2.30;2.10;;;;;;;17.82;65.68;101628.69;4994007;28;20038;-88
2022/07/31 02:44:45;;;;;;;2.20;2.00;;;;;;;17.78;65.81;101620.06;4993926;28;20065;-89
2022/07/31 02:47:12;;;;;;;2.00;1.90;;;;;;;17.75;66.16;101617.53;4993826;28;20029;-89
2022/07/31 02:49:37;;;;;;;2.28;2.08;;;;;;;17.73;66.02;101625.47;4993822;28;20033;-89
2022/07/31 02:52:04;;;;;;;2.13;2.03;;;;;;;17.70;66.03;101619.47;4994027;28;20082;-89
2022/07/31 02:54:30;;;;;;;;;;;;;;;17.66;66.30;101613.47;4993898;28;20093;-89
2022/07/31 02:56:57;;;;;;;2.30;2.10;;;;;;;17.65;66.30;101611.75;4993342;28;19918;-89
2022/07/31 02:59:22;;;;;;;2.20;2.00;;;;;;;17.62;66.42;101609.22;4993791;28;20038;-90
2022/07/31 03:01:48;;;;;;;2.27;2.07;;;;;;;17.62;66.31;101603.13;4994144;28;20022;-89
2022/07/31 03:04:13;;;;;;;2.23;2.03;;;;;;;17.62;66.72;101595.25;4993539;28;20113;-90
2022/07/31 03:06:39;;;;;;;2.33;2.13;;;;;;;17.60;66.57;101593.53;4994411;28;20105;-90
2022/07/31 03:09:04;;;;;;;2.10;2.00;;;;;;;17.61;66.70;101597.00;4997489;28;20026;-89
2022/07/31 03:11:30;;;;;;;2.10;2.00;;;;;;;17.61;66.59;101602.25;4997926;28;20046;-90
2022/07/31 03:13:58;;;;;;;2.30;2.10;;;;;;;17.60;66.56;101600.53;4997810;28;20062;-90
2022/07/31 03:16:25;;;;;;;2.35;2.15;;;;;;;17.60;66.75;101595.28;4997658;28;20034;-89
2022/07/31 03:18:52;;;;;;;2.47;2.10;;;;;;;17.58;66.80;101592.72;4997201;28;20027;-89
2022/07/31 03:21:18;;;;;;;2.25;2.05;;;;;;;17.60;66.95;101587.41;4997687;28;20235;-89
2022/07/31 03:23:45;;;;;;;2.30;2.10;;;;;;;17.59;67.01;101588.31;4997915;28;20054;-89
2022/07/31 03:26:10;;;;;;;2.05;1.95;;;;;;;17.57;67.18;101585.75;4997699;28;20045;-89
2022/07/31 03:28:36;;;;;;;2.20;2.00;;;;;;;17.58;67.08;101586.59;4997054;28;20026;-89
2022/07/31 03:31:01;;;;;;;2.03;1.93;;;;;;;17.58;67.19;101589.22;4997516;28;20053;-89
2022/07/31 03:33:27;;;;;;;1.90;1.80;;;;;;;17.57;67.51;101595.38;4996992;28;20394;-89
2022/07/31 03:35:53;;;;;;;2.00;1.90;;;;;;;17.55;67.60;101595.44;4997462;28;20030;-89
2022/07/31 03:38:19;;;;;;;2.10;1.90;;;;;;;17.52;67.77;101594.69;4997850;28;20054;-90
2022/07/31 03:40:44;;;;;;;1.92;1.83;;;;;;;17.50;67.84;101594.75;4997077;28;20053;-89
2022/07/31 03:43:10;;;;;;;2.47;1.83;;;;;;;17.47;67.81;101586.97;4997206;28;20057;-89
2022/07/31 03:45:37;;;;;;;1.90;1.80;;;;;;;17.44;68.36;101584.44;4997480;28;20038;-88
2022/07/31 03:48:03;;;;;;;1.90;1.80;;;;;;;17.40;68.09;101586.28;4996989;28;20458;-89
2022/07/31 03:50:29;;;;;;;1.98;1.88;;;;;;;17.39;68.01;101584.56;4997377;28;20022;-90
2022/07/31 03:52:57;;;;;;;1.97;1.87;;;;;;;17.40;68.70;101588.03;4996595;28;20023;-89
2022/07/31 03:55:22;;;;;;;2.30;2.10;;;;;;;17.40;68.63;101588.03;4997272;28;20376;-89
2022/07/31 03:57:48;;;;;;;2.23;2.03;;;;;;;17.39;68.39;101587.19;4997577;28;20034;-90
2022/07/31 04:00:15;;;;;;;2.37;2.17;;;;;;;17.39;68.67;101586.34;4996765;28;20022;-89
2022/07/31 04:02:40;;;;;;;1.90;1.80;;;;;;;17.38;68.12;101585.47;4996821;28;20027;-89
2022/07/31 04:05:06;;;;;;;2.10;2.00;;;;;;;17.40;68.42;101583.66;4996781;28;20029;-89
2022/07/31 04:07:31;;;;;;;2.00;1.88;;;;;;;17.38;68.61;101579.38;4996414;28;20117;-89
2022/07/31 04:09:56;;;;;;;2.07;1.97;;;;;;;17.39;68.49;101597.69;4996439;28;20026;-88
2022/07/31 04:12:24;;;;;;;2.13;1.93;;;;;;;17.40;68.68;101595.91;4996702;28;20030;-89
2022/07/31 04:14:49;;;;;;;2.30;2.10;;;;;;;17.41;68.56;101600.25;4996597;28;20462;-88
2022/07/31 04:17:15;;;;;;;2.53;2.20;;;;;;;17.41;68.48;101595.00;4996728;28;20113;-89
2022/07/31 04:19:40;;;;;;;2.40;2.20;;;;;;;17.41;68.66;101600.25;4995719;28;20022;-88
2022/07/31 04:22:06;;;;;;;2.40;2.20;;;;;;;17.40;69.10;101599.41;4996240;28;20023;-89
2022/07/31 04:24:32;;;;;;;2.77;2.30;;;;;;;17.38;69.90;101598.59;4996452;28;20027;-89
2022/07/31 04:26:58;;;;;;;2.40;2.08;;;;;;;17.36;70.48;101602.19;4996119;28;20072;-90
2022/07/31 04:29:24;;;;;;;2.45;2.25;;;;;;;17.33;69.87;101603.16;4996436;28;20027;-89
2022/07/31 04:31:49;;;;;;;2.50;2.30;;;;;;;17.33;70.35;101602.28;4995743;28;20026;-88
2022/07/31 04:34:15;;;;;;;3.00;2.40;;;;;;;17.32;70.85;101611.94;4996631;28;20026;-89
2022/07/31 04:36:40;;;;;;;3.87;2.80;;;;;;;17.31;71.98;101604.97;4996003;28;20023;-90
2022/07/31 04:39:06;;;;;;;3.37;2.90;;;;;;;17.31;70.67;101610.22;4996118;28;20030;-89
2022/07/31 04:41:31;;;;;;;4.03;3.10;;;;;;;17.31;71.72;101604.97;4996389;28;20073;-89
2022/07/31 04:43:56;;;;;;;3.30;2.57;;;;;;;17.34;70.86;101598.75;4995460;28;20027;-89
2022/07/31 04:46:22;;;;;;;3.33;2.60;;;;;;;17.36;72.48;101597.78;4995898;28;20030;-89
2022/07/31 04:48:48;;;;;;;2.80;2.53;;;;;;;17.37;71.28;101596.88;4996412;28;20038;-89
2022/07/31 04:51:20;;;;;;;2.73;2.20;;;;;;;17.40;71.10;101599.41;4995551;28;20053;-89
2022/07/31 04:53:46;;;;;;;2.10;1.90;;;;;;;17.43;71.00;101604.56;4996368;28;20037;-89
2022/07/31 04:59:02;;;;;;;2.85;2.38;;;;;;;17.50;71.63;101592.13;4995564;28;20077;-89
2022/07/31 05:01:28;;;;;;;3.22;2.60;;;;;;;17.55;72.03;101600.69;4995590;28;20038;-89
2022/07/31 05:03:53;;;;;;;2.60;2.20;;;;;;;17.59;71.20;101598.81;4995078;28;20033;-88
2022/07/31 05:06:18;;;;;;;2.60;2.40;;;;;;;17.58;72.88;101594.47;4995746;28;20033;-88
2022/07/31 05:08:44;;;;;;;2.43;2.20;;;;;;;17.59;71.81;101593.56;4995735;28;20049;-89
2022/07/31 05:11:24;;;;;;;2.90;2.33;;;;;;;17.61;71.89;101597.00;4994772;28;20034;-89
2022/07/31 05:13:56;;;;;;;2.70;2.20;;;;;;;17.62;71.69;101598.72;4995134;28;20034;-88
2022/07/31 05:16:22;;;;;;;2.13;1.98;;;;;;;17.65;72.10;101595.13;4995607;28;20034;-89
2022/07/31 05:18:48;;;;;;;2.20;2.00;;;;;;;17.64;71.56;101599.53;4995417;28;20026;-89
2022/07/31 05:21:26;;;;;;;2.38;2.17;;;;;;;17.65;73.64;101588.13;4995073;28;20028;-89
2022/07/31 05:23:53;;;;;;;2.50;2.30;;;;;;;17.65;72.11;101587.25;4995147;28;20034;-88
2022/07/31 05:26:19;;;;;;;2.35;2.15;;;;;;;17.69;73.56;101588.88;4995191;28;20030;-89
2022/07/31 05:28:46;;;;;;;2.10;1.90;;;;;;;17.69;73.28;101584.47;4995463;28;20117;-89
2022/07/31 05:31:11;;;;;;;2.50;1.63;;;;;;;17.73;72.91;101580.00;4993766;28;20050;-86
2022/07/31 05:33:37;;;;;;;1.80;1.70;;;;;;;17.75;72.44;101581.66;4994154;28;20085;-87
2022/07/31 05:36:09;;;;;;;1.52;1.42;;;;;;;17.79;72.05;101576.31;4994681;28;20041;-90
2022/07/31 05:38:34;;;;;;;1.38;1.33;;;;;;;17.85;73.86;101579.56;4994694;28;20022;-90
2022/07/31 05:40:59;;;;;;;1.43;1.37;;;;;;;17.87;74.36;101579.53;4993953;28;20028;-90
2022/07/31 05:43:25;;;;;;;2.27;2.07;;;;;;;17.85;73.48;101574.31;4994669;28;20462;-86
2022/07/31 05:46:00;;;;;;;2.20;2.00;;;;;;;17.84;75.86;101580.50;4993549;28;20026;-85
2022/07/31 05:48:26;;;;;;;2.20;2.00;;;;;;;17.83;74.57;101575.28;4993995;28;20027;-86
2022/07/31 05:50:51;;;;;;;2.27;2.10;;;;;;;17.85;74.77;101586.59;4993500;28;20031;-86
2022/07/31 05:53:23;;;;;;;1.80;1.70;;;;;;;17.83;75.57;101586.66;4993352;28;20375;-86
2022/07/31 05:55:49;;;;;;;1.85;1.75;;;;;;;17.85;73.10;101589.22;4993388;28;20030;-86
2022/07/31 05:58:17;;;;;;;2.20;2.00;;;;;;;17.87;74.39;101582.16;4993925;28;20022;-86
2022/07/31 06:00:45;;;;;;;2.15;1.95;;;;;;;17.87;76.18;101577.75;4992671;28;20037;-85
2022/07/31 06:03:11;;;;;;;2.58;2.10;;;;;;;17.87;75.26;101585.63;4993319;28;20034;-86
2022/07/31 06:05:37;;;;;;;2.35;1.80;;;;;;;17.90;75.01;101589.94;4993896;28;20463;-86
2022/07/31 06:08:03;;;;;;;;;;;;;;;17.91;76.01;101586.38;4993628;28;20026;-85
2022/07/31 06:10:28;;;;;;;3.37;2.27;;;;;;;17.89;75.56;101585.59;4993725;28;19956;-85
2022/07/31 06:12:53;;;;;;;2.77;2.20;;;;;;;17.92;75.82;101585.47;4993664;28;20471;-85
2022/07/31 06:15:19;;;;;;;4.07;2.50;;;;;;;17.92;76.63;101590.72;4993222;28;20379;-85
2022/07/31 06:17:44;;;;;;;2.40;2.20;;;;;;;17.93;74.97;101592.44;4993764;28;20062;-85
2022/07/31 06:20:10;;;;;;;2.53;2.27;;;;;;;17.96;76.79;101584.44;4993169;28;20026;-84
2022/07/31 06:22:40;;;;;;;2.30;2.10;;;;;;;17.99;76.69;101583.50;4992404;28;20065;-85
2022/07/31 06:25:07;;;;;;;2.30;2.10;;;;;;;18.02;76.27;101583.41;4992811;28;20117;-85
2022/07/31 06:27:33;;;;;;;3.08;2.15;;;;;;;18.05;77.46;101580.69;4993348;28;20034;-87
2022/07/31 06:29:58;;;;;;;1.92;1.80;;;;;;;18.09;75.80;101576.19;4993210;28;20096;-88
2022/07/31 06:32:24;;;;;;;2.40;2.20;;;;;;;18.13;77.76;101573.38;4993466;28;20530;-87
2022/07/31 06:34:49;;;;;;;2.53;2.10;;;;;;;18.18;77.42;101575.84;4993470;28;20114;-88
2022/07/31 06:37:14;;;;;;;2.10;1.80;;;;;;;18.22;75.94;101572.22;4993553;28;20018;-88
2022/07/31 06:39:40;;;;;;;1.80;1.70;;;;;;;18.28;77.01;101571.97;4993297;28;20121;-87
2022/07/31 06:42:05;;;;;;;1.63;1.53;;;;;;;18.35;77.14;101570.84;4992912;28;20026;-88
2022/07/31 06:44:32;;;;;;;3.33;2.23;;;;;;;18.40;76.64;101569.81;4994658;28;20026;-93
2022/07/31 06:46:58;;;;;;;2.42;2.15;;;;;;;18.45;76.16;101568.72;4994330;28;20029;-91
2022/07/31 06:49:24;;;;;;;2.03;1.67;;;;;;;18.54;76.16;101572.81;4994390;28;20018;-88
2022/07/31 06:51:50;;;;;;;2.22;2.03;;;;;;;18.61;76.24;101579.53;4993113;28;20113;-90
2022/07/31 06:54:15;;;;;;;1.83;1.70;;;;;;;18.67;76.23;101579.31;4993579;28;20180;-93
2022/07/31 06:56:41;;;;;;;1.30;1.30;;;;;;;18.72;75.74;101576.50;4993939;28;20054;-91
2022/07/31 06:59:06;;;;;;;2.03;1.90;;;;;;;18.76;75.94;101572.00;4993508;28;20430;-88
2022/07/31 07:01:32;;;;;;;2.17;1.97;;;;;;;18.79;76.21;101577.97;4993503;28;20475;-93
2022/07/31 07:03:58;;;;;;;2.00;1.90;;;;;;;18.84;75.42;101569.91;4993506;28;20038;-91
2022/07/31 07:06:24;;;;;;;2.30;2.10;;;;;;;18.94;75.64;101575.72;4993836;28;20113;-92
2022/07/31 07:08:50;;;;;;;1.83;1.73;;;;;;;19.04;77.07;101571.81;4994070;28;20026;-90
2022/07/31 07:11:15;;;;;;;2.67;2.20;;;;;;;19.14;75.96;101572.28;4994171;28;20467;-93
2022/07/31 07:13:41;;;;;;;3.10;2.30;;;;;;;19.20;75.08;101579.94;4993863;28;20479;-92
2022/07/31 07:16:06;;;;;;;2.47;2.10;;;;;;;19.29;74.95;101582.19;4993796;28;20375;-93
2022/07/31 07:18:32;;;;;;;2.00;1.90;;;;;;;19.37;74.26;101573.13;4993322;28;20038;-93
2022/07/31 07:20:57;;;;;;;2.60;2.10;;;;;;;19.44;75.70;101577.25;4994178;28;20034;-94
2022/07/31 07:23:23;;;;;;;2.60;2.40;;;;;;;19.50;74.71;101578.78;4993769;28;20120;-95
2022/07/31 07:25:49;;;;;;;5.10;2.90;;;;;;;19.54;74.89;101569.81;4993436;28;20033;-90
2022/07/31 07:28:14;;;;;;;4.53;2.95;;;;;;;19.61;74.23;101573.91;4994088;28;20031;-93
2022/07/31 07:30:39;;;;;;;5.23;3.10;;;;;;;19.71;74.44;101575.25;4994147;28;20427;-92
2022/07/31 07:33:05;;;;;;;3.30;2.70;;;;;;;19.86;74.58;101571.13;4992843;28;20092;-93
2022/07/31 07:35:32;;;;;;;4.90;3.30;;;;;;;20.06;75.20;101577.28;4993825;28;20027;-90
2022/07/31 07:37:58;;;;;;;5.93;3.50;;;;;;;20.21;74.33;101563.47;4996228;28;20053;-96
2022/07/31 07:40:24;;;;;;;9.57;4.80;;;;;;;20.26;73.39;101568.53;5008772;28;20034;-96
2022/07/31 07:42:50;;;;;;;;;;;;;;;20.29;73.26;101563.13;5010124;28;20018;-96
2022/07/31 07:45:15;;;;;;;4.57;3.33;;;;;;;20.35;74.22;101559.34;5004159;28;19918;-93
2022/07/31 07:47:41;;;;;;;4.23;3.40;;;;;;;20.39;73.06;101567.97;4993893;28;20018;-94
2022/07/31 07:50:07;;;;;;;4.57;3.37;;;;;;;20.48;73.48;101565.78;4993704;28;20037;-95
2022/07/31 07:52:33;;;;;;;4.90;3.50;;;;;;;20.52;72.63;101562.06;4993810;28;20041;-95
2022/07/31 07:54:59;;;;;;;6.45;3.88;;;;;;;20.59;73.86;101557.38;4997799;28;20168;-94
2022/07/31 07:57:24;;;;;;;5.47;3.67;;;;;;;20.63;73.09;101556.31;4999440;28;20061;-94
2022/07/31 07:59:50;;;;;;;7.37;4.53;;;;;;;20.64;72.75;101557.16;4996522;28;20030;-91
2022/07/31 08:02:15;;;;;;;7.67;4.43;;;;;;;20.62;72.34;101553.72;4997427;28;20034;-91
2022/07/31 08:04:42;;;;;;;7.03;4.60;;;;;;;20.59;72.60;101562.63;4997506;28;20034;-92
2022/07/31 08:07:07;;;;;;;4.57;3.42;;;;;;;20.60;72.91;101556.44;4997181;28;20113;-93
2022/07/31 08:09:33;;;;;;;5.00;3.70;;;;;;;20.65;72.81;101562.38;4996885;28;20097;-93
2022/07/31 08:11:59;;;;;;;7.82;4.60;;;;;;;20.67;72.46;101559.66;4997130;28;20458;-93
2022/07/31 08:14:25;;;;;;;6.38;3.90;;;;;;;20.74;73.03;101552.31;4998714;28;20037;-93
2022/07/31 08:16:52;;;;;;;6.65;4.43;;;;;;;20.82;72.61;101550.19;4997106;28;20521;-94
2022/07/31 08:19:17;;;;;;;;;;;;;;;20.92;72.74;101553.25;4997772;28;20027;-95
2022/07/31 08:21:42;;;;;;;7.00;4.32;;;;;;;20.98;71.83;101555.59;4996836;28;19929;-95
2022/07/31 08:24:09;;;;;;;5.00;3.50;;;;;;;21.03;71.77;101550.09;4995974;28;20513;-94
2022/07/31 08:29:38;;;;;;;8.05;4.57;;;;;;;21.10;71.48;101543.59;4997157;28;20445;-96
2022/07/31 08:32:04;;;;;;;7.32;4.43;;;;;;;21.12;71.73;101547.00;4996406;28;20046;-95
2022/07/31 08:34:29;;;;;;;7.37;4.10;;;;;;;21.08;71.98;101546.28;4996847;28;20030;-94
2022/07/31 08:36:54;;;;;;;7.53;4.47;;;;;;;21.08;71.49;101556.84;4996772;28;20274;-96
2022/07/31 08:39:20;;;;;;;8.07;4.73;;;;;;;20.98;72.00;101548.53;4996833;28;20014;-91
2022/07/31 08:41:45;;;;;;;6.70;4.50;;;;;;;20.99;71.84;101546.75;4996226;28;20332;-94
2022/07/31 08:44:10;;;;;;;5.97;4.00;;;;;;;20.99;71.37;101549.38;4996457;28;20026;-94
2022/07/31 08:46:37;;;;;;;5.93;4.20;;;;;;;21.00;71.51;101551.09;4997738;28;20113;-87
2022/07/31 08:49:04;;;;;;;5.82;4.22;;;;;;;21.00;71.48;101548.47;4994077;28;20452;-82
2022/07/31 08:51:31;;;;;;;;;;;;;;;21.02;71.74;101553.66;4995314;28;20379;-82
2022/07/31 08:53:57;;;;;;;7.95;4.57;;;;;;;21.04;72.02;101550.03;4995251;28;19937;-83
2022/07/31 08:56:24;;;;;;;5.50;4.00;;;;;;;21.05;71.71;101551.75;4994518;28;20026;-82
2022/07/31 08:58:50;;;;;;;5.40;3.97;;;;;;;21.12;71.99;101553.16;4994420;28;20029;-83
2022/07/31 09:01:16;;;;;;;6.90;4.35;;;;;;;21.12;71.93;101558.44;4995021;28;20034;-83
2022/07/31 09:03:41;;;;;;;4.32;3.50;;;;;;;21.12;71.74;101558.44;4994547;28;20054;-83
2022/07/31 09:06:07;;;;;;;4.03;2.97;;;;;;;21.14;71.63;101559.22;4993616;28;20109;-83
2022/07/31 09:08:33;;;;;;;3.17;2.87;;;;;;;21.22;72.67;101552.69;4994595;28;20409;-84
2022/07/31 09:11:07;;;;;;;4.43;3.30;;;;;;;21.29;72.67;101551.44;4993582;28;20026;-83
2022/07/31 09:13:33;;;;;;;4.85;3.50;;;;;;;21.36;72.41;101552.88;4994812;28;20482;-84
2022/07/31 09:15:59;;;;;;;5.57;3.90;;;;;;;21.43;72.11;101541.06;4994364;28;20027;-85
2022/07/31 09:18:25;;;;;;;5.57;4.00;;;;;;;21.48;71.73;101542.63;4993084;28;20041;-84
2022/07/31 09:21:00;;;;;;;4.50;3.72;;;;;;;21.51;71.87;101543.31;4994516;28;20451;-84
2022/07/31 09:23:26;;;;;;;6.55;4.15;;;;;;;21.55;71.30;101538.75;4993986;28;20044;-83
2022/07/31 09:26:04;;;;;;;8.05;5.15;;;;;;;21.58;70.75;101544.72;4994144;28;20382;-88
2022/07/31 09:28:36;;;;;;;8.00;4.65;;;;;;;21.57;71.09;101547.44;4995924;28;20466;-94
2022/07/31 09:31:03;;;;;;;5.43;4.00;;;;;;;21.58;71.11;101534.16;4996188;28;20089;-94
2022/07/31 09:33:38;;;;;;;5.40;4.20;;;;;;;21.70;71.72;101548.56;4996357;28;20494;-95
2022/07/31 09:36:04;;;;;;;5.65;4.00;;;;;;;21.76;71.23;101555.31;4988624;28;20057;-96
2022/07/31 09:38:42;;;;;;;8.07;4.78;;;;;;;21.80;70.46;101541.00;5008860;28;20030;-96
2022/07/31 09:41:13;;;;;;;5.28;4.00;;;;;;;21.86;70.39;101545.97;5000670;28;20093;-96
2022/07/31 09:43:39;;;;;;;5.85;4.00;;;;;;;21.90;70.46;101544.88;4979391;28;20026;-96
2022/07/31 09:46:06;;;;;;;5.35;3.88;;;;;;;22.04;71.00;101538.88;4994272;28;20080;-96
2022/07/31 09:48:50;;;;;;;3.90;3.10;;;;;;;22.28;70.82;101541.16;5016176;28;20079;-93
2022/07/31 09:51:36;;;;;;;5.15;3.75;;;;;;;22.56;70.39;101528.25;5016740;28;20030;-95
2022/07/31 09:54:02;;;;;;;6.55;4.60;;;;;;;22.73;69.03;101528.16;5011391;23;20062;-95
2022/07/31 09:56:36;;;;;;;4.90;3.93;;;;;;;22.82;69.49;101522.34;4978373;28;20026;-96
2022/07/31 09:59:02;;;;;;;4.78;3.40;;;;;;;22.95;69.11;101534.88;4977197;28;20036;-96
2022/07/31 10:01:29;;;;;;;3.47;3.17;;;;;;;23.11;67.91;101525.13;4977564;28;20070;-94
2022/07/31 10:03:59;;;;;;;4.30;3.45;;;;;;;23.31;68.76;101531.09;4975977;28;20026;-95
2022/07/31 10:06:33;;;;;;;4.00;3.13;;;;;;;23.55;68.38;101526.13;4977976;28;20031;-95
2022/07/31 10:09:02;;;;;;;3.45;3.08;;;;;;;23.69;67.73;101532.41;4975440;28;20033;-95
2022/07/31 10:11:33;;;;;;;4.05;3.03;;;;;;;23.70;66.51;101520.88;4976446;28;20431;-96
2022/07/31 10:14:21;;;;;;;3.67;3.30;;;;;;;23.61;66.58;101532.88;4968392;28;20046;-94
2022/07/31 10:17:03;;;;;;;3.85;3.10;;;;;;;23.62;67.34;101531.09;4977245;28;20431;-95
2022/07/31 10:19:33;;;;;;;3.20;2.90;;;;;;;23.65;66.84;101530.88;4976877;28;20025;-94
2022/07/31 10:22:02;;;;;;;3.20;2.90;;;;;;;23.65;66.33;101536.19;4976249;28;20027;-94
2022/07/31 10:24:44;;;;;;;5.20;3.60;;;;;;;23.56;65.83;101522.53;4979334;28;20113;-96
2022/07/31 10:27:11;;;;;;;3.92;3.30;;;;;;;23.55;66.14;101526.13;4978929;28;20037;-94
2022/07/31 10:29:38;;;;;;;4.50;3.20;;;;;;;23.50;65.63;101522.91;4975947;28;20027;-84
2022/07/31 10:32:04;;;;;;;;;;;;;;;23.47;65.77;101520.44;4984277;28;20364;-93
2022/07/31 10:34:32;;;;;;;3.80;3.40;;;;;;;23.48;66.02;101521.28;4977445;28;19914;-96
2022/07/31 10:37:05;;;;;;;3.78;3.25;;;;;;;23.53;65.19;101522.72;4975528;28;20027;-96
2022/07/31 10:39:32;;;;;;;3.97;3.00;;;;;;;23.64;66.07;101518.59;4975468;28;20033;-96
2022/07/31 10:42:35;;;;;;;6.20;3.42;;;;;;;23.82;65.92;101511.31;4983103;28;20029;-96
2022/07/31 10:45:07;;;;;;;2.78;2.58;;;;;;;23.99;65.74;101505.00;4976877;28;20031;-96
2022/07/31 10:47:32;;;;;;;3.38;3.05;;;;;;;24.10;64.27;101507.84;4983516;28;20034;-96
2022/07/31 10:49:58;;;;;;;4.20;3.03;;;;;;;24.12;65.03;101516.56;4973592;28;20400;-93
2022/07/31 10:52:32;;;;;;;2.90;2.60;;;;;;;24.12;64.74;101513.06;4974798;28;20086;-93
2022/07/31 10:55:00;;;;;;;2.50;2.40;;;;;;;24.14;64.83;101512.00;4974525;28;20038;-95
2022/07/31 10:57:33;;;;;;;2.88;2.58;;;;;;;24.09;64.44;101500.88;4975143;28;20110;-93
2022/07/31 11:00:10;;;;;;;3.22;2.65;;;;;;;23.93;64.17;101502.72;4974981;28;20023;-94
2022/07/31 11:02:36;;;;;;;2.72;2.40;;;;;;;23.79;64.68;101496.44;4975017;28;20077;-94
2022/07/31 11:05:13;;;;;;;2.95;2.65;;;;;;;23.75;64.08;101505.56;4974734;28;20431;-93
2022/07/31 11:07:43;;;;;;;3.88;2.60;;;;;;;23.73;64.62;101502.16;4974892;28;20038;-93
2022/07/31 11:10:18;;;;;;;3.00;2.67;;;;;;;23.78;64.93;101496.56;4974252;28;20046;-93
2022/07/31 11:12:44;;;;;;;2.38;2.22;;;;;;;23.82;64.73;101488.31;4974950;28;20031;-94
2022/07/31 11:15:23;;;;;;;2.22;2.13;;;;;;;23.96;65.05;101490.16;4974372;28;20086;-93
2022/07/31 11:17:49;;;;;;;3.65;2.75;;;;;;;24.01;64.60;101490.72;4975254;28;20050;-94
2022/07/31 11:20:24;;;;;;;2.20;2.10;;;;;;;24.10;65.04;101493.75;4974770;28;20505;-94
2022/07/31 11:23:00;;;;;;;2.10;2.00;;;;;;;24.12;63.80;101484.75;4974595;28;20030;-93
2022/07/31 11:25:31;;;;;;;2.72;2.30;;;;;;;24.05;64.77;101486.91;4974981;28;20019;-93
2022/07/31 11:28:08;;;;;;;2.55;2.35;;;;;;;24.06;64.32;101478.03;4969683;28;20143;-93
2022/07/31 11:30:34;;;;;;;3.45;2.58;;;;;;;24.10;63.84;101494.59;4978107;28;20042;-92
2022/07/31 11:32:59;;;;;;;;;;;;;;;24.31;64.17;101479.13;4978507;28;20093;-92
2022/07/31 11:35:30;;;;;;;3.37;2.83;;;;;;;24.45;63.83;101480.06;4978647;28;20431;-93